Time;durP1;ratioP1;P1;durP2;ratioP2;P2;SDS_P1;SDS_P2;PMS_P1;PMS_P2;Temp;Humidity;BMP_temperature;BMP_pressure;BME280_temperature;BME280_humidity;BME280_pressure;Samples;Min_cycle;Max_cycle;Signal;HPM_P1;HPM_P2
2023/06/22 00:03:07;;;;;;;10.27;9.37;;;18.40;1.00;;;;;;8269866;28;20269;-71
2023/06/22 00:07:09;;;;;;;11.67;10.63;;;18.30;83.80;;;;;;8268853;28;20187;-74
2023/06/22 00:11:10;;;;;;;13.23;12.03;;;18.20;1.00;;;;;;8268429;28;20274;-71
2023/06/22 00:15:10;;;;;;;12.07;10.97;;;18.20;99.90;;;;;;8270741;28;20201;-71
2023/06/22 00:19:11;;;;;;;12.27;11.17;;;18.20;94.40;;;;;;8273815;28;20215;-71
2023/06/22 00:23:17;;;;;;;11.93;10.83;;;18.20;99.90;;;;;;8269556;28;20266;-71
2023/06/22 00:27:18;;;;;;;12.53;11.33;;;18.10;99.90;;;;;;8268669;28;20207;-69
2023/06/22 00:31:19;;;;;;;11.93;10.93;;;18.10;99.90;;;;;;8271814;28;20192;-71
2023/06/22 00:35:20;;;;;;;12.57;11.43;;;18.10;1.00;;;;;;8269475;28;20190;-71
2023/06/22 00:39:24;;;;;;;12.57;11.47;;;18.00;1.00;;;;;;8270504;28;20234;-69
2023/06/22 00:43:25;;;;;;;12.30;11.20;;;18.00;99.90;;;;;;8273988;28;20198;-71
2023/06/22 00:47:27;;;;;;;12.30;11.20;;;17.90;99.90;;;;;;8268106;28;20192;-69
2023/06/22 00:51:28;;;;;;;12.40;11.30;;;17.90;1.00;;;;;;8271357;28;20195;-70
2023/06/22 00:55:29;;;;;;;12.40;11.10;;;17.80;1.00;;;;;;8272088;28;20191;-71
2023/06/22 00:59:32;;;;;;;13.27;12.07;;;17.80;1.00;;;;;;8273651;28;20220;-70
2023/06/22 01:03:33;;;;;;;12.47;11.17;;;17.80;99.90;;;;;;8269801;28;20202;-69
2023/06/22 01:07:55;;;;;;;12.10;11.00;;;17.70;99.90;;;;;;8266163;28;20246;-70
2023/06/22 01:12:02;;;;;;;10.93;9.93;;;17.70;1.00;;;;;;8268536;28;20186;-70
2023/06/22 01:16:19;;;;;;;12.43;11.23;;;17.70;99.90;;;;;;8266253;28;20250;-71
2023/06/22 01:20:23;;;;;;;12.60;11.50;;;17.70;99.90;;;;;;8267653;28;20187;-71
2023/06/22 01:24:30;;;;;;;12.47;11.33;;;17.70;99.90;;;;;;8269061;28;20202;-70
2023/06/22 01:28:50;;;;;;;12.87;11.67;;;17.60;99.90;;;;;;8264394;28;20254;-71
2023/06/22 01:33:05;;;;;;;12.97;11.80;;;17.60;99.90;;;;;;8274178;28;20222;-71
2023/06/22 01:37:07;;;;;;;14.87;13.47;;;17.50;14.80;;;;;;8262977;28;20219;-70
2023/06/22 01:41:11;;;;;;;14.93;13.53;;;17.50;1.00;;;;;;8267657;28;20179;-69
2023/06/22 01:45:13;;;;;;;14.00;12.80;;;17.50;99.90;;;;;;8268308;28;20211;-70
2023/06/22 01:49:17;;;;;;;13.63;12.33;;;17.40;1.00;;;;;;8266449;28;20219;-70
2023/06/22 01:53:20;;;;;;;13.53;12.23;;;17.30;99.90;;;;;;8282234;28;20320;-70
2023/06/22 01:57:21;;;;;;;13.53;12.33;;;17.30;15.40;;;;;;8266801;28;20218;-69
2023/06/22 02:01:33;;;;;;;13.70;12.40;;;17.20;99.90;;;;;;8268875;28;20254;-69
2023/06/22 02:05:43;;;;;;;13.67;12.47;;;17.20;1.00;;;;;;8272605;28;20237;-70
2023/06/22 02:09:47;;;;;;;13.77;12.37;;;17.10;99.90;;;;;;8282268;28;20183;-71
2023/06/22 02:13:48;;;;;;;13.50;12.30;;;17.10;99.90;;;;;;8267623;28;20214;-71
2023/06/22 02:17:49;;;;;;;14.60;13.30;;;17.00;1.00;;;;;;8265370;28;20211;-70
2023/06/22 02:21:51;;;;;;;16.43;14.90;;;17.00;99.90;;;;;;8270968;28;20310;-71
2023/06/22 02:25:52;;;;;;;15.80;14.40;;;16.90;99.90;;;;;;8268005;28;20187;-69
2023/06/22 02:29:53;;;;;;;14.60;13.30;;;16.80;1.00;;;;;;8270899;28;20186;-70
2023/06/22 02:33:54;;;;;;;15.83;14.43;;;16.90;1.00;;;;;;8267889;28;20198;-71
2023/06/22 02:37:55;;;;;;;14.60;13.30;;;16.80;1.00;;;;;;8269403;28;20218;-71
2023/06/22 02:41:56;;;;;;;14.10;12.80;;;16.80;1.00;;;;;;8265601;28;20187;-71
2023/06/22 02:45:57;;;;;;;14.60;13.30;;;16.80;1.00;;;;;;8269688;28;20183;-71
2023/06/22 02:49:58;;;;;;;14.57;13.17;;;16.70;1.00;;;;;;8266356;28;20195;-69
2023/06/22 02:53:58;;;;;;;14.90;13.60;;;16.70;1.00;;;;;;8264080;28;20184;-70
2023/06/22 02:58:04;;;;;;;16.10;14.60;;;16.80;1.00;;;;;;8263570;28;20284;-70
2023/06/22 03:02:14;;;;;;;15.87;14.37;;;16.80;1.00;;;;;;8271831;28;20200;-70
2023/06/22 03:06:15;;;;;;;14.77;13.47;;;16.90;1.00;;;;;;8270559;28;20237;-70
2023/06/22 03:10:17;;;;;;;15.33;13.93;;;17.00;1.00;;;;;;8270805;28;20224;-69
2023/06/22 03:14:17;;;;;;;16.10;14.47;;;17.30;99.90;;;;;;8271060;28;20253;-69
2023/06/22 03:18:24;;;;;;;15.20;13.80;;;17.70;99.90;;;;;;8270904;28;20222;-69
2023/06/22 03:22:25;;;;;;;14.40;13.03;;;18.00;1.00;;;;;;8287080;28;20214;-68
2023/06/22 03:26:29;;;;;;;15.63;14.13;;;18.60;1.00;;;;;;8272704;28;20289;-70
2023/06/22 03:30:30;;;;;;;13.97;12.67;;;19.10;1.00;;;;;;8269287;28;20198;-70
2023/06/22 03:34:34;;;;;;;13.00;11.80;;;19.80;99.90;;;;;;8269578;28;20222;-69
2023/06/22 03:38:41;;;;;;;13.80;11.90;;;20.40;99.90;;;;;;8271731;28;20245;-70
2023/06/22 03:42:42;;;;;;;14.17;12.83;;;21.00;79.50;;;;;;8262994;28;20223;-71
2023/06/22 03:46:43;;;;;;;14.33;12.93;;;21.60;1.00;;;;;;8263567;28;20195;-71
2023/06/22 03:50:46;;;;;;;13.17;11.97;;;22.10;99.90;;;;;;8277000;28;20257;-71
2023/06/22 03:54:48;;;;;;;12.33;11.23;;;22.60;99.90;;;;;;8266226;28;20197;-70
2023/06/22 03:58:49;;;;;;;14.00;12.80;;;23.10;99.90;;;;;;8266106;28;20219;-71
2023/06/22 04:02:53;;;;;;;12.30;11.30;;;23.60;99.90;;;;;;8267927;28;20217;-70
2023/06/22 04:06:54;;;;;;;13.77;12.47;;;23.90;99.90;;;;;;8269536;28;20191;-71
2023/06/22 04:10:55;;;;;;;13.20;11.97;;;24.30;83.60;;;;;;8275346;28;20213;-70
2023/06/22 04:14:56;;;;;;;13.30;12.07;;;24.20;57.20;;;;;;8270245;28;20218;-70
2023/06/22 04:18:57;;;;;;;12.93;11.83;;;24.30;63.20;;;;;;8265641;28;20223;-71
2023/06/22 04:22:57;;;;;;;15.17;13.70;;;24.50;59.80;;;;;;8269074;28;20314;-71
2023/06/22 04:27:00;;;;;;;13.47;12.37;;;24.70;52.90;;;;;;8266672;28;20271;-71
2023/06/22 04:31:04;;;;;;;12.83;11.70;;;25.00;39.30;;;;;;8268889;28;20191;-71
2023/06/22 04:35:06;;;;;;;12.00;11.00;;;25.20;35.60;;;;;;8280765;28;20304;-71
2023/06/22 04:39:09;;;;;;;13.43;12.13;;;25.80;13.80;;;;;;8268616;28;20258;-70
2023/06/22 04:43:12;;;;;;;18.45;16.63;;;26.40;1.00;;;;;;8269228;28;20187;-71
2023/06/22 04:47:13;;;;;;;18.38;16.58;;;26.70;1.00;;;;;;8269752;28;20191;-70
2023/06/22 04:51:14;;;;;;;18.67;17.08;;;26.80;1.00;;;;;;8268093;28;20195;-71
2023/06/22 04:55:18;;;;;;;17.48;15.98;;;26.70;1.00;;;;;;8271056;28;20214;-71
2023/06/22 04:59:19;;;;;;;17.70;16.00;;;26.60;1.00;;;;;;8267561;28;20225;-72
2023/06/22 05:03:20;;;;;;;12.82;11.70;;;26.90;1.00;;;;;;8272866;28;20212;-71
2023/06/22 05:07:21;;;;;;;16.38;14.75;;;27.30;1.00;;;;;;8269109;28;20250;-72
2023/06/22 05:11:25;;;;;;;14.30;12.73;;;27.50;1.00;;;;;;8268275;28;20269;-72
2023/06/22 05:15:30;;;;;;;14.13;12.68;;;27.40;1.00;;;;;;8268371;28;20200;-70
2023/06/22 05:19:33;;;;;;;16.83;15.13;;;26.70;1.00;;;;;;8264107;28;20309;-73
2023/06/22 05:23:34;;;;;;;17.02;14.90;;;26.00;1.00;;;;;;8268153;28;20187;-70
2023/06/22 05:27:39;;;;;;;16.85;15.25;;;25.30;20.60;;;;;;8269414;28;20194;-72
2023/06/22 05:31:40;;;;;;;18.03;16.50;;;24.90;90.20;;;;;;8265624;28;20208;-70
2023/06/22 05:35:41;;;;;;;19.40;17.63;;;24.60;99.90;;;;;;8265496;28;20330;-71
2023/06/22 05:39:46;;;;;;;19.67;17.77;;;24.40;99.90;;;;;;8271876;28;20227;-72
2023/06/22 05:43:47;;;;;;;16.07;14.73;;;24.20;99.90;;;;;;8269012;28;20195;-72
2023/06/22 05:47:48;;;;;;;18.07;16.30;;;24.20;99.90;;;;;;8265541;28;20194;-72
2023/06/22 05:51:49;;;;;;;21.23;17.63;;;24.30;99.90;;;;;;8253220;28;20199;-71
2023/06/22 05:55:50;;;;;;;19.07;16.70;;;24.40;99.90;;;;;;8270222;28;20195;-72
2023/06/22 05:59:53;;;;;;;17.00;15.37;;;24.30;99.90;;;;;;8265381;28;20192;-71
2023/06/22 06:03:54;;;;;;;15.47;13.97;;;24.40;99.90;;;;;;8266664;28;20287;-72
2023/06/22 06:07:55;;;;;;;14.73;13.43;;;24.60;99.90;;;;;;8264062;28;20183;-70
2023/06/22 06:11:56;;;;;;;16.47;14.53;;;24.60;99.90;;;;;;8264988;28;20241;-70
2023/06/22 06:15:59;;;;;;;14.30;12.97;;;24.80;99.90;;;;;;8265234;28;20194;-72
2023/06/22 06:20:04;;;;;;;14.83;13.03;;;25.00;99.90;;;;;;8267953;28;20192;-67
2023/06/22 06:24:06;;;;;;;15.70;14.30;;;25.30;99.90;;;;;;8264497;28;20207;-66
2023/06/22 06:28:06;;;;;;;15.57;13.40;;;25.60;27.10;;;;;;8268037;28;20187;-66
2023/06/22 06:32:08;;;;;;;14.67;13.30;;;25.70;18.40;;;;;;8264231;28;20191;-67
2023/06/22 06:36:09;;;;;;;15.17;13.67;;;25.80;9.50;;;;;;8263861;28;20195;-66
2023/06/22 06:40:12;;;;;;;15.43;13.93;;;25.90;8.80;;;;;;8270399;28;20321;-67
2023/06/22 06:44:13;;;;;;;14.68;13.27;;;26.10;13.10;;;;;;8270004;28;20183;-67
2023/06/22 06:48:14;;;;;;;14.82;13.55;;;26.30;1.00;;;;;;8254043;28;20226;-66
2023/06/22 06:52:15;;;;;;;13.95;12.75;;;26.30;1.00;;;;;;8273921;28;20241;-67
2023/06/22 06:56:16;;;;;;;14.30;13.00;;;26.30;1.00;;;;;;8259909;28;20221;-69
2023/06/22 07:00:18;;;;;;;14.70;13.40;;;26.30;1.00;;;;;;8269222;28;20191;-68
2023/06/22 07:04:19;;;;;;;14.10;12.80;;;26.30;1.00;;;;;;8270202;28;20218;-67
2023/06/22 07:08:20;;;;;;;16.70;15.27;;;26.30;1.00;;;;;;8270997;28;20192;-67
2023/06/22 07:12:24;;;;;;;15.25;13.40;;;26.30;1.00;;;;;;8268993;28;20199;-67
2023/06/22 07:16:27;;;;;;;14.50;13.23;;;26.30;1.00;;;;;;8272195;28;20219;-68
2023/06/22 07:20:28;;;;;;;12.95;11.85;;;26.40;1.00;;;;;;8270958;28;20282;-66
2023/06/22 07:24:30;;;;;;;13.38;12.07;;;26.60;1.00;;;;;;8271943;28;20184;-69
2023/06/22 07:28:36;;;;;;;13.70;12.50;;;26.60;1.00;;;;;;8275591;28;20192;-67
2023/06/22 07:32:37;;;;;;;12.15;11.10;;;26.70;1.00;;;;;;8274412;28;20201;-67
2023/06/22 07:36:39;;;;;;;11.57;10.38;;;27.00;1.00;;;;;;8268671;28;20235;-68
2023/06/22 07:40:44;;;;;;;10.30;9.40;;;27.20;1.00;;;;;;8270879;28;20227;-67
2023/06/22 07:44:45;;;;;;;10.07;9.18;;;27.20;1.00;;;;;;8285152;28;20184;-69
2023/06/22 07:48:47;;;;;;;12.68;11.57;;;27.20;1.00;;;;;;8266468;28;20188;-70
2023/06/22 07:52:48;;;;;;;12.85;11.55;;;27.40;1.00;;;;;;8275720;28;20234;-68
2023/06/22 07:56:49;;;;;;;13.13;11.95;;;27.30;1.00;;;;;;8269777;28;20203;-66
2023/06/22 08:00:50;;;;;;;13.73;12.25;;;27.30;1.00;;;;;;8270359;28;20195;-67
2023/06/22 08:04:51;;;;;;;12.18;11.18;;;27.30;1.00;;;;;;8268229;28;20215;-66
2023/06/22 08:08:58;;;;;;;13.70;11.45;;;27.30;1.00;;;;;;8268896;28;20198;-66
2023/06/22 08:12:59;;;;;;;11.85;10.75;;;27.50;1.00;;;;;;8269499;28;20183;-68
2023/06/22 08:17:00;;;;;;;11.30;10.25;;;27.80;1.00;;;;;;8278030;28;20306;-70
2023/06/22 08:21:04;;;;;;;11.93;10.95;;;28.20;1.00;;;;;;8268758;28;20205;-68
2023/06/22 08:25:10;;;;;;;11.88;10.68;;;28.60;1.00;;;;;;8269548;28;20216;-67
2023/06/22 08:29:11;;;;;;;12.20;11.05;;;28.60;1.00;;;;;;8270304;28;20187;-67
2023/06/22 08:33:13;;;;;;;12.30;11.00;;;28.40;1.00;;;;;;8269217;28;20199;-68
2023/06/22 08:37:14;;;;;;;12.45;11.35;;;28.40;1.00;;;;;;8271641;28;20208;-66
2023/06/22 08:41:19;;;;;;;11.68;10.68;;;28.30;1.00;;;;;;8267436;28;20180;-69
2023/06/22 08:45:21;;;;;;;12.10;10.95;;;28.40;1.00;;;;;;8271649;28;20183;-67
2023/06/22 08:49:23;;;;;;;13.18;11.77;;;28.60;1.00;;;;;;8269409;28;20187;-67
2023/06/22 08:53:24;;;;;;;12.15;11.05;;;28.60;1.00;;;;;;8269716;28;20210;-66
2023/06/22 08:57:25;;;;;;;12.23;11.18;;;28.40;1.00;;;;;;8268754;28;20281;-70
2023/06/22 09:01:26;;;;;;;9.50;8.63;;;28.60;1.00;;;;;;8269044;28;20175;-69
2023/06/22 09:05:27;;;;;;;10.90;9.82;;;28.80;1.00;;;;;;8270975;28;20278;-69
2023/06/22 09:09:28;;;;;;;11.98;10.85;;;28.80;1.00;;;;;;8275221;28;20195;-67
2023/06/22 09:13:31;;;;;;;11.43;10.38;;;28.70;1.00;;;;;;8258482;28;20202;-70
2023/06/22 09:17:34;;;;;;;12.43;11.10;;;28.70;1.00;;;;;;8268184;28;20211;-68
2023/06/22 09:21:36;;;;;;;10.80;9.90;;;28.70;1.00;;;;;;8269364;28;20190;-69
2023/06/22 09:25:37;;;;;;;10.73;9.65;;;28.80;1.00;;;;;;8267444;28;20184;-68
2023/06/22 09:29:39;;;;;;;9.82;9.02;;;29.20;1.00;;;;;;8267339;28;20188;-67
2023/06/22 09:33:40;;;;;;;9.50;8.60;;;29.40;1.00;;;;;;8269595;28;20183;-70
2023/06/22 09:37:44;;;;;;;9.80;8.90;;;29.50;1.00;;;;;;8270410;28;20250;-66
2023/06/22 09:41:46;;;;;;;9.10;8.30;;;29.60;1.00;;;;;;8265277;28;20256;-70
2023/06/22 09:45:51;;;;;;;9.48;8.68;;;29.70;1.00;;;;;;8269365;28;20278;-70
2023/06/22 09:49:53;;;;;;;9.98;9.13;;;29.80;1.00;;;;;;8268914;28;20188;-66
2023/06/22 09:53:53;;;;;;;13.00;11.80;;;29.50;1.00;;;;;;8267693;28;20199;-67
2023/06/22 09:57:55;;;;;;;10.27;8.98;;;29.20;1.00;;;;;;8266481;28;20222;-69
2023/06/22 10:01:56;;;;;;;10.05;9.15;;;28.90;1.00;;;;;;8265287;28;20195;-69
2023/06/22 10:05:57;;;;;;;10.27;9.38;;;29.20;1.00;;;;;;8251327;28;20215;-67
2023/06/22 10:09:58;;;;;;;9.18;7.38;;;29.60;1.00;;;;;;8267555;28;20223;-69
2023/06/22 10:13:59;;;;;;;10.07;7.95;;;29.80;1.00;;;;;;8270297;28;20184;-69
2023/06/22 10:18:09;;;;;;;8.55;7.75;;;30.20;1.00;;;;;;8278712;28;20211;-69
2023/06/22 10:22:18;;;;;;;7.95;7.25;;;30.30;1.00;;;;;;8274922;28;20235;-68
2023/06/22 10:26:19;;;;;;;8.25;7.45;;;30.50;1.00;;;;;;8254925;28;20195;-70
2023/06/22 10:30:20;;;;;;;8.52;7.75;;;30.80;1.00;;;;;;8266767;28;20192;-66
2023/06/22 10:34:23;;;;;;;8.05;7.07;;;30.80;1.00;;;;;;8264568;28;20227;-68
2023/06/22 10:38:30;;;;;;;8.20;7.50;;;30.80;1.00;;;;;;8265877;28;20242;-68
2023/06/22 10:42:31;;;;;;;7.72;7.13;;;30.60;1.00;;;;;;8265701;28;20211;-69
2023/06/22 10:46:32;;;;;;;7.65;6.88;;;30.40;1.00;;;;;;8267294;28;20191;-67
2023/06/22 10:50:33;;;;;;;7.75;7.05;;;30.20;1.00;;;;;;8265201;28;20225;-69
2023/06/22 10:54:35;;;;;;;7.93;6.68;;;30.30;1.00;;;;;;8272746;28;20194;-71
2023/06/22 10:58:36;;;;;;;8.68;7.43;;;30.70;1.00;;;;;;8264281;28;20215;-67
2023/06/22 11:02:37;;;;;;;7.18;6.47;;;30.80;1.00;;;;;;8262873;28;20271;-67
2023/06/22 11:06:38;;;;;;;7.75;7.15;;;30.90;1.00;;;;;;8268883;28;20266;-69
2023/06/22 11:10:39;;;;;;;8.65;7.75;;;30.80;1.00;;;;;;8267593;28;20184;-66
2023/06/22 11:14:40;;;;;;;7.40;6.75;;;30.70;1.00;;;;;;8266570;28;20303;-68
2023/06/22 11:18:43;;;;;;;8.07;7.30;;;30.10;1.00;;;;;;8271997;28;20208;-68
2023/06/22 11:22:44;;;;;;;8.43;7.63;;;29.90;1.00;;;;;;8268499;28;20187;-67
2023/06/22 11:26:48;;;;;;;7.82;7.13;;;29.70;1.00;;;;;;8272386;28;20218;-69
2023/06/22 11:30:49;;;;;;;6.97;6.28;;;29.70;1.00;;;;;;8271032;28;20187;-68
2023/06/22 11:34:50;;;;;;;7.30;6.45;;;30.00;1.00;;;;;;8273251;28;20188;-68
2023/06/22 11:38:51;;;;;;;6.82;6.22;;;30.20;1.00;;;;;;8269766;28;20235;-69
2023/06/22 11:42:52;;;;;;;7.28;6.68;;;30.30;1.00;;;;;;8270151;28;20190;-69
2023/06/22 11:46:53;;;;;;;6.13;5.55;;;30.60;1.00;;;;;;8256467;28;20226;-68
2023/06/22 11:50:54;;;;;;;6.13;5.63;;;30.90;1.00;;;;;;8273201;28;20187;-69
2023/06/22 11:54:56;;;;;;;6.78;5.95;;;30.90;1.00;;;;;;8271281;28;20183;-69
2023/06/22 11:58:57;;;;;;;6.40;5.80;;;31.10;1.00;;;;;;8272800;28;20203;-71
2023/06/22 12:03:00;;;;;;;7.05;6.45;;;31.10;1.00;;;;;;8269043;28;20215;-68
2023/06/22 12:07:02;;;;;;;6.30;5.80;;;31.50;1.00;;;;;;8267512;28;20199;-67
2023/06/22 12:11:03;;;;;;;6.78;6.18;;;31.80;1.00;;;;;;8269990;28;20198;-66
2023/06/22 12:15:04;;;;;;;6.28;5.68;;;31.70;1.00;;;;;;8275503;28;20206;-67
2023/06/22 12:19:05;;;;;;;6.75;6.07;;;31.10;1.00;;;;;;8266743;28;20220;-69
2023/06/22 12:23:06;;;;;;;7.70;6.18;;;30.60;1.00;;;;;;8267825;28;20191;-70
2023/06/22 12:27:07;;;;;;;6.60;6.10;;;30.80;1.00;;;;;;8271984;28;20192;-66
2023/06/22 12:31:08;;;;;;;6.63;5.90;;;30.90;1.00;;;;;;8271795;28;20195;-69
2023/06/22 12:35:13;;;;;;;6.43;5.90;;;31.20;1.00;;;;;;8262564;28;20184;-70
2023/06/22 12:39:14;;;;;;;7.80;5.60;;;31.90;1.00;;;;;;8268698;28;20215;-69
2023/06/22 12:43:16;;;;;;;6.93;6.22;;;32.20;1.00;;;;;;8269535;28;20184;-69
2023/06/22 12:47:17;;;;;;;6.43;5.82;;;32.10;1.00;;;;;;8274060;28;20191;-67
2023/06/22 12:51:24;;;;;;;6.82;6.22;;;32.30;1.00;;;;;;8269052;28;20254;-69
2023/06/22 12:55:25;;;;;;;7.28;6.57;;;32.40;1.00;;;;;;8267212;28;20229;-69
2023/06/22 12:59:26;;;;;;;6.85;6.15;;;32.60;1.00;;;;;;8268075;28;20211;-66
2023/06/22 13:03:27;;;;;;;6.57;5.97;;;32.60;1.00;;;;;;8268912;28;20210;-68
2023/06/22 13:07:28;;;;;;;6.30;5.80;;;32.80;1.00;;;;;;8273273;28;20226;-69
2023/06/22 13:11:29;;;;;;;6.30;5.80;;;32.80;1.00;;;;;;8265870;28;20191;-72
2023/06/22 13:15:30;;;;;;;6.38;5.78;;;32.90;1.00;;;;;;8280874;28;20187;-70
2023/06/22 13:19:37;;;;;;;6.88;6.15;;;33.10;1.00;;;;;;8270700;28;20216;-74
2023/06/22 13:23:38;;;;;;;6.22;5.63;;;33.10;99.90;;;;;;8273900;28;20191;-72
2023/06/22 13:27:42;;;;;;;6.53;5.85;;;32.70;99.90;;;;;;8277004;28;20274;-71
2023/06/22 13:31:43;;;;;;;6.22;5.72;;;32.40;99.90;;;;;;8278302;28;20265;-72
2023/06/22 13:35:44;;;;;;;6.00;5.50;;;32.00;99.90;;;;;;8276235;28;20182;-74
2023/06/22 13:39:45;;;;;;;7.35;6.63;;;31.70;1.00;;;;;;8274446;28;20265;-73
2023/06/22 13:43:46;;;;;;;6.72;6.13;;;31.50;1.00;;;;;;8266620;28;20194;-71
2023/06/22 13:47:47;;;;;;;7.72;7.03;;;31.20;1.00;;;;;;8274266;28;20179;-73
2023/06/22 13:51:49;;;;;;;6.32;5.82;;;31.50;1.00;;;;;;8267361;28;20179;-73
2023/06/22 13:55:50;;;;;;;6.80;6.20;;;31.80;1.00;;;;;;8273243;28;20194;-73
2023/06/22 13:59:54;;;;;;;6.35;5.85;;;32.20;1.00;;;;;;8276121;28;20238;-74
2023/06/22 14:03:55;;;;;;;6.13;5.60;;;32.20;1.00;;;;;;8270790;28;20230;-71
2023/06/22 14:07:58;;;;;;;6.28;5.78;;;32.10;1.00;;;;;;8270317;28;20310;-73
2023/06/22 14:12:04;;;;;;;8.38;6.57;;;32.10;1.00;;;;;;8265943;28;20183;-72
2023/06/22 14:16:08;;;;;;;6.82;6.10;;;32.10;1.00;;;;;;8265898;28;20214;-74
2023/06/22 14:20:09;;;;;;;6.10;5.60;;;32.00;1.00;;;;;;8271888;28;20242;-72
2023/06/22 14:24:10;;;;;;;7.07;6.38;;;32.20;1.00;;;;;;8267847;28;20183;-72
2023/06/22 14:28:11;;;;;;;7.60;6.00;;;32.40;1.00;;;;;;8279545;28;20275;-74
2023/06/22 14:32:12;;;;;;;6.35;5.75;;;32.30;1.00;;;;;;8270437;28;20187;-72
2023/06/22 14:36:14;;;;;;;7.03;6.32;;;32.40;99.90;;;;;;8267565;28;20277;-69
2023/06/22 14:40:15;;;;;;;6.63;6.07;;;32.40;99.90;;;;;;8265808;28;20222;-71
2023/06/22 14:44:21;;;;;;;6.85;6.30;;;32.00;99.90;;;;;;8267413;28;20183;-71
2023/06/22 14:48:22;;;;;;;7.30;5.85;;;31.50;99.90;;;;;;8272286;28;20198;-73
2023/06/22 14:52:23;;;;;;;6.97;6.28;;;31.10;99.90;;;;;;8267810;28;20237;-71
2023/06/22 14:56:26;;;;;;;6.97;6.13;;;31.00;1.00;;;;;;8268139;28;20196;-72
2023/06/22 15:00:26;;;;;;;6.03;5.50;;;31.00;1.00;;;;;;8286384;28;20191;-75
2023/06/22 15:04:31;;;;;;;6.75;6.15;;;31.10;1.00;;;;;;8286803;28;20242;-72
2023/06/22 15:08:39;;;;;;;7.38;5.80;;;31.20;1.00;;;;;;8276173;28;20191;-69
2023/06/22 15:12:40;;;;;;;6.88;6.28;;;31.40;1.00;;;;;;8275638;28;20286;-73
2023/06/22 15:16:50;;;;;;;6.68;6.00;;;31.60;1.00;;;;;;8273598;28;20273;-73
2023/06/22 15:20:53;;;;;;;6.50;5.90;;;31.60;1.00;;;;;;8272562;28;20214;-73
2023/06/22 15:24:57;;;;;;;5.90;5.40;;;31.70;1.00;;;;;;8274879;28;20188;-72
2023/06/22 15:28:58;;;;;;;7.72;6.50;;;31.80;1.00;;;;;;8279013;28;20211;-71
2023/06/22 15:33:01;;;;;;;6.88;6.18;;;31.60;99.90;;;;;;8274384;28;20190;-72
2023/06/22 15:37:01;;;;;;;5.88;5.28;;;31.30;99.90;;;;;;8271492;28;20295;-72
2023/06/22 15:41:04;;;;;;;6.00;5.50;;;30.80;1.00;;;;;;8268795;28;20218;-71
2023/06/22 15:45:05;;;;;;;6.30;5.57;;;30.80;1.00;;;;;;8269073;28;20195;-71
2023/06/22 15:49:07;;;;;;;6.88;6.28;;;30.80;1.00;;;;;;8270469;28;20220;-72
2023/06/22 15:53:08;;;;;;;6.70;5.97;;;31.00;1.00;;;;;;8272179;28;20192;-71
2023/06/22 15:57:12;;;;;;;7.00;6.30;;;31.10;1.00;;;;;;8274583;28;20269;-73
2023/06/22 16:01:13;;;;;;;8.27;7.47;;;31.10;1.00;;;;;;8270683;28;20180;-72
2023/06/22 16:05:14;;;;;;;7.50;6.80;;;31.20;99.90;;;;;;8271333;28;20206;-72
2023/06/22 16:09:16;;;;;;;6.25;5.72;;;30.90;99.90;;;;;;8269425;28;20213;-72
2023/06/22 16:13:16;;;;;;;8.82;6.15;;;30.60;99.90;;;;;;8272673;28;20188;-72
2023/06/22 16:17:17;;;;;;;7.90;7.10;;;30.50;1.00;;;;;;8270745;28;20214;-72
2023/06/22 16:21:19;;;;;;;8.07;7.28;;;30.60;1.00;;;;;;8270797;28;20191;-71
2023/06/22 16:25:19;;;;;;;8.65;7.40;;;30.70;1.00;;;;;;8269016;28;20188;-71
2023/06/22 16:29:21;;;;;;;7.05;6.43;;;30.70;1.00;;;;;;8273638;28;20199;-70
2023/06/22 16:33:22;;;;;;;7.55;5.88;;;30.80;99.90;;;;;;8270948;28;20192;-71
2023/06/22 16:37:23;;;;;;;5.95;5.45;;;30.80;99.90;;;;;;8266618;28;20219;-71
2023/06/22 16:41:25;;;;;;;6.38;5.78;;;30.70;99.90;;;;;;8282182;28;20230;-71
2023/06/22 16:45:26;;;;;;;6.53;5.93;;;30.40;1.00;;;;;;8271384;28;20195;-71
2023/06/22 16:49:27;;;;;;;6.70;6.00;;;30.30;1.00;;;;;;8266706;28;20187;-71
2023/06/22 16:53:29;;;;;;;7.25;6.57;;;30.40;1.00;;;;;;8269818;28;20191;-72
2023/06/22 16:57:30;;;;;;;7.03;6.32;;;30.50;1.00;;;;;;8271063;28;20207;-72
2023/06/22 17:01:34;;;;;;;6.90;6.20;;;30.50;1.00;;;;;;8284056;28;20187;-73
2023/06/22 17:05:36;;;;;;;7.10;6.40;;;30.50;1.00;;;;;;8277150;28;20277;-72
2023/06/22 17:09:45;;;;;;;6.93;5.90;;;30.50;1.00;;;;;;8267048;28;20184;-71
2023/06/22 17:13:49;;;;;;;6.18;5.57;;;30.50;1.00;;;;;;8275962;28;20192;-71
2023/06/22 17:17:52;;;;;;;6.60;5.60;;;30.50;1.00;;;;;;8268039;28;20207;-72
2023/06/22 17:21:53;;;;;;;6.38;5.78;;;30.80;99.90;;;;;;8268984;28;20195;-70
2023/06/22 17:25:59;;;;;;;8.98;5.72;;;31.10;99.90;;;;;;8270904;28;20235;-69
2023/06/22 17:30:08;;;;;;;5.88;4.97;;;31.30;99.90;;;;;;8268080;28;20198;-73
2023/06/22 17:34:10;;;;;;;6.93;5.30;;;31.60;99.90;;;;;;8267191;28;20290;-71
2023/06/22 17:38:22;;;;;;;6.30;5.80;;;31.50;99.90;;;;;;8272931;28;20217;-72
2023/06/22 17:42:23;;;;;;;6.00;5.50;;;31.60;99.90;;;;;;8266701;28;20198;-72
2023/06/22 17:46:25;;;;;;;6.03;5.43;;;31.60;99.90;;;;;;8265871;28;20191;-71
2023/06/22 17:50:26;;;;;;;6.68;6.07;;;31.40;99.90;;;;;;8266835;28;20285;-71
2023/06/22 17:54:31;;;;;;;7.03;6.40;;;31.20;99.90;;;;;;8265534;28;20183;-70
2023/06/22 17:58:32;;;;;;;5.63;5.10;;;31.00;99.90;;;;;;8269682;28;20215;-69
2023/06/22 18:02:39;;;;;;;8.68;5.97;;;30.90;99.90;;;;;;8269431;28;20180;-70
2023/06/22 18:06:46;;;;;;;6.30;5.70;;;30.60;99.90;;;;;;8265391;28;20184;-69
2023/06/22 18:10:48;;;;;;;5.78;4.90;;;30.30;99.90;;;;;;8268476;28;20183;-73
2023/06/22 18:14:53;;;;;;;6.43;5.82;;;29.90;99.90;;;;;;8268240;28;20317;-72
2023/06/22 18:18:55;;;;;;;6.35;5.75;;;29.50;99.90;;;;;;8266924;28;20214;-71
2023/06/22 18:22:58;;;;;;;5.63;4.78;;;28.90;99.90;;;;;;8267015;28;20244;-70
2023/06/22 18:27:01;;;;;;;9.65;7.95;;;28.30;99.90;;;;;;8278270;28;20298;-68
2023/06/22 18:31:03;;;;;;;6.88;6.18;;;27.80;99.90;;;;;;8262840;28;20190;-72
2023/06/22 18:35:05;;;;;;;7.60;5.40;;;27.40;99.90;;;;;;8270196;28;20184;-73
2023/06/22 18:39:08;;;;;;;6.72;5.38;;;27.00;1.00;;;;;;8270003;28;20207;-71
2023/06/22 18:43:09;;;;;;;5.97;4.90;;;26.70;1.00;;;;;;8271330;28;20175;-72
2023/06/22 18:47:13;;;;;;;5.73;4.77;;;26.40;1.00;;;;;;8274200;28;20227;-70
2023/06/22 18:51:15;;;;;;;8.17;6.57;;;26.20;1.00;;;;;;8272100;28;20220;-72
2023/06/22 18:55:16;;;;;;;7.00;5.57;;;26.00;1.00;;;;;;8278872;28;20184;-73
2023/06/22 18:59:37;;;;;;;11.40;5.90;;;25.80;1.00;;;;;;8272030;28;20211;-71
2023/06/22 19:03:39;;;;;;;7.90;6.33;;;25.60;1.00;;;;;;8275457;28;20203;-70
2023/06/22 19:07:52;;;;;;;6.50;5.20;;;25.40;1.00;;;;;;8274114;28;20199;-71
2023/06/22 19:12:19;;;;;;;12.50;6.13;;;25.30;1.00;;;;;;8273214;28;20188;-71
2023/06/22 19:16:29;;;;;;;9.83;6.57;;;25.10;1.00;;;;;;8275380;28;20211;-71
2023/06/22 19:20:34;;;;;;;8.47;6.40;;;25.00;1.00;;;;;;8270087;28;20187;-70
2023/06/22 19:24:50;;;;;;;12.27;8.33;;;24.80;1.00;;;;;;8269286;28;20195;-73
2023/06/22 19:28:57;;;;;;;12.90;9.80;;;24.70;1.00;;;;;;8270634;28;20211;-69
2023/06/22 19:32:59;;;;;;;8.80;7.17;;;24.60;1.00;;;;;;8270315;28;20191;-71
2023/06/22 19:37:00;;;;;;;12.23;8.67;;;24.50;1.00;;;;;;8275099;28;20274;-71
2023/06/22 19:41:01;;;;;;;14.00;10.63;;;24.40;1.00;;;;;;8286369;28;20191;-69
2023/06/22 19:45:03;;;;;;;11.63;7.03;;;24.30;1.00;;;;;;8282005;28;20180;-67
2023/06/22 19:49:04;;;;;;;16.90;10.70;;;24.20;1.00;;;;;;8268225;28;20366;-69
2023/06/22 19:53:15;;;;;;;9.13;8.03;;;24.10;1.00;;;;;;8270386;28;20186;-70
2023/06/22 19:57:16;;;;;;;9.80;8.63;;;24.00;1.00;;;;;;8268957;28;20208;-70
2023/06/22 20:01:18;;;;;;;11.43;8.10;;;23.90;1.00;;;;;;8272737;28;20222;-69
2023/06/22 20:05:22;;;;;;;7.80;6.37;;;23.80;1.00;;;;;;8271462;28;20226;-71
2023/06/22 20:09:23;;;;;;;5.47;4.97;;;23.70;1.00;;;;;;8271839;28;20192;-69
2023/06/22 20:13:25;;;;;;;7.60;4.87;;;23.70;1.00;;;;;;8272221;28;20299;-71
2023/06/22 20:17:25;;;;;;;6.20;5.60;;;23.60;1.00;;;;;;8275967;28;20200;-71
2023/06/22 20:21:26;;;;;;;5.40;4.90;;;23.60;1.00;;;;;;8271492;28;20229;-70
2023/06/22 20:25:31;;;;;;;6.83;4.83;;;23.60;1.00;;;;;;8266662;28;20207;-71
2023/06/22 20:29:34;;;;;;;7.40;6.70;;;23.60;1.00;;;;;;8272841;28;20198;-69
2023/06/22 20:33:35;;;;;;;5.10;4.33;;;23.50;1.00;;;;;;8271959;28;20282;-70
2023/06/22 20:37:36;;;;;;;6.00;4.10;;;23.50;1.00;;;;;;8284466;28;20206;-66
2023/06/22 20:41:38;;;;;;;5.03;4.10;;;23.50;1.00;;;;;;8265882;28;20230;-70
2023/06/22 20:45:39;;;;;;;4.43;3.97;;;23.50;1.00;;;;;;8270048;28;20184;-69
2023/06/22 20:49:39;;;;;;;4.63;3.67;;;23.50;1.00;;;;;;8265613;28;20195;-67
2023/06/22 20:53:40;;;;;;;3.77;3.33;;;23.50;1.00;;;;;;8269608;28;20241;-69
2023/06/22 20:57:43;;;;;;;4.17;3.73;;;23.50;1.00;;;;;;8267011;28;20214;-69
2023/06/22 21:01:46;;;;;;;4.70;3.90;;;23.40;1.00;;;;;;8268317;28;20246;-68